Time;durP1;ratioP1;P1;durP2;ratioP2;P2;SDS_P1;SDS_P2;PMS_P1;PMS_P2;Temp;Humidity;BMP_temperature;BMP_pressure;BME280_temperature;BME280_humidity;BME280_pressure;Samples;Min_cycle;Max_cycle;Signal;HPM_P1;HPM_P2
2023/03/28 00:01:08;;;;;;;1.77;0.70;;;2.60;99.90;;;;;;5047551;28;20208;-72
2023/03/28 00:03:39;;;;;;;0.63;0.50;;;2.70;99.90;;;;;;5056957;28;20199;-72
2023/03/28 00:06:09;;;;;;;0.80;0.53;;;2.70;99.90;;;;;;5067590;28;20618;-72
2023/03/28 00:08:39;;;;;;;0.87;0.40;;;2.70;99.90;;;;;;5067453;28;20314;-72
2023/03/28 00:11:08;;;;;;;0.93;0.53;;;2.60;99.90;;;;;;5066335;28;20241;-72
2023/03/28 00:13:35;;;;;;;1.47;0.47;;;2.50;99.90;;;;;;5052641;28;20208;-72
2023/03/28 00:16:05;;;;;;;0.30;0.30;;;2.50;99.90;;;;;;5059993;28;20298;-72
2023/03/28 00:18:37;;;;;;;2.53;0.57;;;2.40;99.90;;;;;;5067030;28;20235;-72
2023/03/28 00:21:18;;;;;;;0.63;0.40;;;2.30;99.90;;;;;;5058526;28;20211;-72
2023/03/28 00:23:45;;;;;;;3.13;0.50;;;2.30;99.90;;;;;;5057367;28;20211;-73
2023/03/28 00:26:12;;;;;;;1.43;0.50;;;2.30;99.90;;;;;;5067355;28;20340;-74
2023/03/28 00:28:39;;;;;;;1.07;0.70;;;2.20;99.90;;;;;;5060102;28;20218;-72
2023/03/28 00:31:07;;;;;;;1.17;0.80;;;2.20;99.90;;;;;;5064766;28;20294;-73
2023/03/28 00:33:34;;;;;;;0.40;0.40;;;2.20;99.90;;;;;;5058788;28;20212;-73
2023/03/28 00:36:00;;;;;;;0.67;0.30;;;2.20;99.90;;;;;;5066715;28;20570;-74
2023/03/28 00:38:30;;;;;;;0.90;0.43;;;2.10;99.90;;;;;;5066991;28;20322;-74
2023/03/28 00:40:58;;;;;;;1.13;0.47;;;2.10;99.90;;;;;;5066054;28;20214;-74
2023/03/28 00:43:37;;;;;;;2.40;0.70;;;2.00;99.90;;;;;;5049785;28;20296;-74
2023/03/28 00:46:08;;;;;;;2.30;0.50;;;2.00;99.90;;;;;;5046631;28;20577;-75
2023/03/28 00:48:35;;;;;;;1.80;0.60;;;2.00;99.90;;;;;;5046824;28;20200;-74
2023/03/28 00:51:02;;;;;;;1.43;0.87;;;2.00;99.90;;;;;;5055822;28;20219;-74
2023/03/28 00:53:32;;;;;;;2.17;0.57;;;2.00;99.90;;;;;;5047247;28;20219;-74
2023/03/28 00:56:04;;;;;;;0.30;0.20;;;2.10;99.90;;;;;;5046799;28;20298;-74
2023/03/28 00:58:34;;;;;;;1.07;0.70;;;2.10;99.90;;;;;;5046817;28;20193;-74
2023/03/28 01:01:01;;;;;;;1.87;0.77;;;2.00;99.90;;;;;;5046216;28;20211;-74
2023/03/28 01:03:32;;;;;;;2.83;0.80;;;2.00;99.90;;;;;;5046695;28;20208;-74
2023/03/28 01:06:03;;;;;;;1.63;0.63;;;2.00;99.90;;;;;;5046127;28;20231;-74
2023/03/28 01:08:35;;;;;;;1.30;0.50;;;2.00;99.90;;;;;;5045990;28;20708;-74
2023/03/28 01:11:02;;;;;;;1.90;0.70;;;2.00;99.90;;;;;;5056266;28;20192;-74
2023/03/28 01:13:33;;;;;;;1.23;0.57;;;2.00;99.90;;;;;;5060698;28;20305;-72
2023/03/28 01:16:02;;;;;;;1.93;0.80;;;2.00;99.90;;;;;;5051269;28;20816;-72
2023/03/28 01:18:33;;;;;;;1.23;0.53;;;2.00;99.90;;;;;;5062875;28;20200;-72
2023/03/28 01:21:38;;;;;;;1.73;0.60;;;1.90;99.90;;;;;;5059935;28;20487;-71
2023/03/28 01:24:43;;;;;;;1.07;0.93;;;1.90;99.90;;;;;;5013601;28;20744;-72
2023/03/28 01:27:15;;;;;;;0.67;0.60;;;2.00;99.90;;;;;;5046621;28;20342;-72
2023/03/28 01:30:26;;;;;;;1.90;0.60;;;1.90;99.90;;;;;;5065790;28;20672;-71
2023/03/28 01:33:22;;;;;;;2.50;0.70;;;2.00;99.90;;;;;;5044393;28;20199;-72
2023/03/28 01:36:24;;;;;;;0.90;0.60;;;2.00;99.90;;;;;;5045811;28;20579;-72
2023/03/28 01:38:59;;;;;;;1.07;0.70;;;2.00;99.90;;;;;;5045963;28;20719;-72
2023/03/28 01:41:34;;;;;;;5.53;1.03;;;2.00;99.90;;;;;;5046455;28;20790;-72
2023/03/28 01:44:07;;;;;;;3.03;0.93;;;2.00;99.90;;;;;;5045808;28;20661;-72
2023/03/28 01:46:38;;;;;;;2.17;0.60;;;2.00;99.90;;;;;;5045790;28;20720;-72
2023/03/28 01:49:10;;;;;;;4.20;1.30;;;2.00;99.90;;;;;;5045578;28;20193;-71
2023/03/28 01:51:49;;;;;;;3.57;0.93;;;2.00;99.90;;;;;;5045826;28;20196;-72
2023/03/28 01:54:27;;;;;;;2.17;0.93;;;2.00;99.90;;;;;;5062491;28;20195;-71
2023/03/28 01:57:02;;;;;;;3.70;1.03;;;2.00;99.90;;;;;;5065274;28;20963;-71
2023/03/28 01:59:33;;;;;;;0.83;0.77;;;2.00;99.90;;;;;;5065381;28;20649;-72
2023/03/28 02:02:06;;;;;;;4.87;1.10;;;2.00;99.90;;;;;;5047596;28;20315;-73
2023/03/28 02:04:35;;;;;;;2.87;0.90;;;2.00;99.90;;;;;;5044917;28;20638;-73
2023/03/28 02:07:04;;;;;;;1.90;0.97;;;2.10;99.90;;;;;;5063910;28;20348;-72
2023/03/28 02:09:34;;;;;;;1.67;0.80;;;2.10;99.90;;;;;;5065028;28;20346;-73
2023/03/28 02:12:06;;;;;;;2.40;0.80;;;2.10;99.90;;;;;;5061425;28;20636;-72
2023/03/28 02:14:40;;;;;;;1.90;0.77;;;2.30;99.90;;;;;;5045162;28;20203;-72
2023/03/28 02:17:14;;;;;;;0.60;0.60;;;2.40;99.90;;;;;;5045292;28;20588;-72
2023/03/28 02:19:45;;;;;;;1.27;0.83;;;2.60;99.90;;;;;;5045304;28;20218;-72
2023/03/28 02:22:20;;;;;;;1.60;0.50;;;2.30;99.90;;;;;;5063375;28;20291;-71
2023/03/28 02:24:50;;;;;;;0.60;0.60;;;2.30;99.90;;;;;;5061150;28;20572;-68
2023/03/28 02:27:19;;;;;;;0.60;0.60;;;2.40;99.90;;;;;;5044476;28;20246;-71
2023/03/28 02:29:48;;;;;;;0.50;0.50;;;2.30;99.90;;;;;;5044875;28;21007;-71
2023/03/28 02:32:15;;;;;;;1.20;0.60;;;2.30;99.90;;;;;;5057487;28;21112;-70
2023/03/28 02:34:45;;;;;;;0.90;0.80;;;2.40;99.90;;;;;;5063557;28;20210;-69
2023/03/28 02:37:24;;;;;;;0.63;0.40;;;2.40;99.90;;;;;;5069982;28;20198;-69
2023/03/28 02:40:07;;;;;;;1.37;0.60;;;2.30;99.90;;;;;;5083552;28;20274;-70
2023/03/28 02:43:03;;;;;;;2.10;0.57;;;2.10;99.90;;;;;;5043715;28;20208;-69
2023/03/28 02:45:50;;;;;;;0.70;0.67;;;2.00;99.90;;;;;;5043087;28;20762;-70
2023/03/28 02:48:31;;;;;;;0.63;0.37;;;2.00;99.90;;;;;;5050409;28;20229;-71
2023/03/28 02:51:08;;;;;;;1.90;0.67;;;1.80;99.90;;;;;;5074303;28;20191;-70
2023/03/28 02:53:43;;;;;;;1.37;0.80;;;1.80;99.90;;;;;;5062860;28;20202;-71
2023/03/28 02:56:18;;;;;;;0.93;0.80;;;1.70;99.90;;;;;;5057866;28;20196;-69
2023/03/28 02:58:50;;;;;;;1.73;0.93;;;1.70;99.90;;;;;;5051872;28;20188;-70
2023/03/28 03:01:16;;;;;;;1.93;0.93;;;1.80;99.90;;;;;;5042699;28;20258;-70
2023/03/28 03:03:44;;;;;;;1.30;0.80;;;1.80;99.90;;;;;;5043071;28;20211;-70
2023/03/28 03:06:12;;;;;;;1.17;1.07;;;1.70;99.90;;;;;;5042224;28;20228;-70
2023/03/28 03:08:39;;;;;;;4.33;1.53;;;1.70;99.90;;;;;;5050662;28;20235;-70
2023/03/28 03:11:06;;;;;;;5.27;1.40;;;1.70;99.90;;;;;;5046961;28;20226;-70
2023/03/28 03:13:34;;;;;;;1.53;1.20;;;1.70;99.90;;;;;;5044785;28;20212;-70
2023/03/28 03:16:02;;;;;;;2.43;1.00;;;1.70;99.90;;;;;;5044357;28;20708;-71
2023/03/28 03:18:29;;;;;;;3.30;1.00;;;1.70;99.90;;;;;;5061738;28;20207;-71
2023/03/28 03:20:56;;;;;;;2.07;1.20;;;1.70;99.90;;;;;;5064174;28;20217;-71
2023/03/28 03:23:22;;;;;;;2.40;1.07;;;1.70;99.90;;;;;;5064657;28;20303;-71
2023/03/28 03:25:50;;;;;;;2.80;1.33;;;1.60;99.90;;;;;;5068398;28;20237;-71
2023/03/28 03:28:17;;;;;;;6.10;1.10;;;1.70;99.90;;;;;;5068401;28;20215;-71
2023/03/28 03:30:45;;;;;;;2.10;1.23;;;1.60;99.90;;;;;;5068253;28;20230;-71
2023/03/28 03:33:13;;;;;;;1.17;0.87;;;1.50;99.90;;;;;;5068337;28;20207;-70
2023/03/28 03:35:44;;;;;;;3.07;1.00;;;1.50;99.90;;;;;;5068162;28;20207;-71
2023/03/28 03:38:11;;;;;;;1.10;0.80;;;1.50;99.90;;;;;;5068427;28;20568;-70
2023/03/28 03:40:38;;;;;;;1.53;0.90;;;1.50;99.90;;;;;;5068150;28;20212;-71
2023/03/28 03:43:05;;;;;;;3.73;1.03;;;1.50;99.90;;;;;;5067206;28;20211;-70
2023/03/28 03:45:32;;;;;;;2.63;0.83;;;1.40;99.90;;;;;;5067747;28;20302;-70
2023/03/28 03:48:00;;;;;;;4.23;1.30;;;1.40;99.90;;;;;;5067904;28;20214;-71
2023/03/28 03:50:27;;;;;;;2.27;0.83;;;1.50;99.90;;;;;;5067142;28;20239;-71
2023/03/28 03:52:54;;;;;;;3.17;1.27;;;1.50;99.90;;;;;;5067725;28;20247;-71
2023/03/28 03:55:21;;;;;;;2.63;0.73;;;1.50;99.90;;;;;;5067364;28;20824;-71
2023/03/28 03:57:48;;;;;;;2.27;0.80;;;1.40;99.90;;;;;;5067408;28;20791;-70
2023/03/28 04:00:17;;;;;;;4.60;1.20;;;1.30;99.90;;;;;;5067517;28;20302;-71
2023/03/28 04:02:45;;;;;;;2.00;1.03;;;1.40;99.90;;;;;;5067474;28;20831;-71
2023/03/28 04:05:14;;;;;;;1.40;0.93;;;1.40;99.90;;;;;;5067154;28;20413;-71
2023/03/28 04:07:41;;;;;;;3.27;1.30;;;1.40;99.90;;;;;;5067028;28;20231;-71
2023/03/28 04:10:08;;;;;;;4.70;1.17;;;1.40;99.90;;;;;;5050743;28;20630;-71
2023/03/28 04:12:35;;;;;;;2.87;1.23;;;1.40;99.90;;;;;;5060259;28;20294;-71
2023/03/28 04:15:02;;;;;;;1.37;0.70;;;1.40;99.90;;;;;;5067154;28;20207;-71
2023/03/28 04:17:33;;;;;;;3.80;1.10;;;1.30;99.90;;;;;;5066959;28;20253;-70
2023/03/28 04:20:01;;;;;;;1.43;0.90;;;1.30;99.90;;;;;;5067052;28;20250;-71
2023/03/28 04:22:29;;;;;;;2.40;0.80;;;1.30;99.90;;;;;;5067227;28;20208;-71
2023/03/28 04:24:56;;;;;;;1.63;0.80;;;1.20;99.90;;;;;;5066729;28;20211;-71
2023/03/28 04:27:25;;;;;;;2.77;1.07;;;1.20;99.90;;;;;;5067066;28;20239;-71
2023/03/28 04:29:53;;;;;;;1.20;0.70;;;1.20;99.90;;;;;;5067052;28;20214;-71
2023/03/28 04:32:20;;;;;;;1.90;0.90;;;1.10;99.90;;;;;;5067336;28;20302;-71
2023/03/28 04:34:49;;;;;;;3.43;1.13;;;1.10;99.90;;;;;;5066975;28;20207;-71
2023/03/28 04:37:17;;;;;;;1.53;0.90;;;1.10;99.90;;;;;;5066747;28;20685;-71
2023/03/28 04:39:46;;;;;;;2.40;0.93;;;1.10;99.90;;;;;;5067002;28;20207;-71
2023/03/28 04:42:14;;;;;;;1.97;1.00;;;1.10;99.90;;;;;;5066195;28;20294;-71
2023/03/28 04:44:41;;;;;;;1.63;1.17;;;1.10;99.90;;;;;;5066748;28;20220;-71
2023/03/28 04:47:10;;;;;;;2.57;1.10;;;1.10;99.90;;;;;;5066662;28;20705;-71
2023/03/28 04:49:37;;;;;;;3.60;0.90;;;1.20;99.90;;;;;;5066671;28;20207;-70
2023/03/28 04:52:04;;;;;;;1.57;0.80;;;1.30;99.90;;;;;;5067026;28;20264;-71
2023/03/28 04:54:31;;;;;;;3.03;1.00;;;1.30;99.90;;;;;;5066966;28;20207;-70
2023/03/28 04:57:01;;;;;;;1.27;1.00;;;1.40;99.90;;;;;;5066686;28;20290;-70
2023/03/28 04:59:28;;;;;;;6.87;1.23;;;1.40;99.90;;;;;;5066549;28;20827;-70
2023/03/28 05:01:55;;;;;;;3.90;1.00;;;1.50;99.90;;;;;;5066550;28;20303;-70
2023/03/28 05:04:24;;;;;;;1.00;0.90;;;1.40;99.90;;;;;;5066006;28;20261;-70
2023/03/28 05:06:51;;;;;;;2.33;0.90;;;1.30;99.90;;;;;;5059622;28;20818;-70
2023/03/28 05:09:18;;;;;;;2.90;0.90;;;1.30;99.90;;;;;;5065618;28;20674;-70
2023/03/28 05:11:45;;;;;;;3.33;1.43;;;1.30;99.90;;;;;;5066038;28;20207;-70
2023/03/28 05:14:14;;;;;;;3.80;1.37;;;1.20;99.90;;;;;;5049210;28;20207;-70
2023/03/28 05:16:41;;;;;;;3.07;1.13;;;1.20;99.90;;;;;;5046276;28;20400;-70
2023/03/28 05:19:08;;;;;;;3.07;1.10;;;1.20;99.90;;;;;;5046219;28;20200;-70
2023/03/28 05:21:35;;;;;;;2.07;1.30;;;1.10;99.90;;;;;;5046353;28;20204;-71
2023/03/28 05:24:02;;;;;;;1.47;0.87;;;1.10;99.90;;;;;;5046161;28;20211;-70
2023/03/28 05:26:29;;;;;;;2.13;1.37;;;1.10;99.90;;;;;;5045865;28;20231;-70
2023/03/28 05:28:56;;;;;;;2.70;1.23;;;1.10;99.90;;;;;;5045945;28;20315;-70
2023/03/28 05:31:27;;;;;;;1.80;1.07;;;1.20;99.90;;;;;;5046210;28;20298;-70
2023/03/28 05:33:54;;;;;;;2.43;1.10;;;1.20;99.90;;;;;;5045471;28;20676;-70
2023/03/28 05:36:21;;;;;;;2.67;1.33;;;1.30;99.90;;;;;;5046158;28;20230;-71
2023/03/28 05:38:48;;;;;;;2.87;1.20;;;1.30;99.90;;;;;;5045954;28;20307;-71
2023/03/28 05:41:15;;;;;;;4.47;1.10;;;1.30;99.90;;;;;;5047975;28;20295;-70
2023/03/28 05:43:42;;;;;;;2.20;0.70;;;1.40;99.90;;;;;;5065536;28;20207;-71
2023/03/28 05:46:09;;;;;;;2.33;1.30;;;1.30;99.90;;;;;;5065683;28;20298;-70
2023/03/28 05:48:37;;;;;;;0.80;0.80;;;1.20;99.90;;;;;;5064934;28;20235;-71
2023/03/28 05:51:05;;;;;;;2.87;0.93;;;1.20;99.90;;;;;;5065390;28;20203;-71
2023/03/28 05:53:31;;;;;;;2.47;1.10;;;1.10;99.90;;;;;;5065746;28;20249;-70
2023/03/28 05:55:58;;;;;;;2.17;1.10;;;1.10;99.90;;;;;;5065298;28;20683;-71
2023/03/28 05:58:25;;;;;;;2.73;1.07;;;1.10;99.90;;;;;;5065287;28;20315;-71
2023/03/28 06:00:52;;;;;;;1.90;1.03;;;1.10;99.90;;;;;;5065438;28;20211;-70
2023/03/28 06:03:19;;;;;;;0.90;0.90;;;1.10;99.90;;;;;;5065781;28;20217;-70
2023/03/28 06:05:48;;;;;;;0.90;0.83;;;1.10;99.90;;;;;;5065142;28;20213;-70
2023/03/28 06:08:15;;;;;;;2.70;1.30;;;1.10;99.90;;;;;;5065497;28;20564;-69
2023/03/28 06:10:41;;;;;;;3.73;1.13;;;1.20;99.90;;;;;;5046097;28;20215;-70
2023/03/28 06:13:08;;;;;;;4.00;1.40;;;1.10;99.90;;;;;;5045627;28;20219;-70
2023/03/28 06:15:35;;;;;;;2.40;1.37;;;1.10;99.90;;;;;;5045704;28;20299;-70
2023/03/28 06:18:02;;;;;;;1.07;0.97;;;1.10;99.90;;;;;;5045598;28;20214;-70
2023/03/28 06:20:29;;;;;;;1.97;1.23;;;1.10;99.90;;;;;;5048587;28;20249;-70
2023/03/28 06:22:57;;;;;;;1.87;0.97;;;1.20;99.90;;;;;;5065323;28;20299;-70
2023/03/28 06:25:24;;;;;;;2.20;0.97;;;1.20;99.90;;;;;;5065174;28;20630;-70
2023/03/28 06:27:51;;;;;;;2.30;1.13;;;1.20;99.90;;;;;;5064993;28;21011;-69
2023/03/28 06:30:18;;;;;;;1.53;0.80;;;1.20;99.90;;;;;;5065182;28;20247;-69
2023/03/28 06:32:46;;;;;;;3.20;1.00;;;1.30;99.90;;;;;;5065270;28;20334;-69
2023/03/28 06:35:13;;;;;;;2.07;0.80;;;1.40;99.90;;;;;;5064827;28;20208;-69
2023/03/28 06:37:39;;;;;;;3.40;0.90;;;1.50;99.90;;;;;;5065437;28;20302;-69
2023/03/28 06:40:09;;;;;;;1.77;1.00;;;1.60;99.90;;;;;;5064904;28;21046;-69
2023/03/28 06:42:36;;;;;;;1.17;1.17;;;1.60;99.90;;;;;;5064712;28;20233;-69
2023/03/28 06:45:03;;;;;;;6.07;1.47;;;1.80;99.90;;;;;;5065001;28;20239;-69
2023/03/28 06:47:30;;;;;;;1.03;0.90;;;1.80;99.90;;;;;;5065148;28;20231;-70
2023/03/28 06:49:57;;;;;;;1.30;1.17;;;1.90;99.90;;;;;;5064884;28;20272;-70
2023/03/28 06:52:24;;;;;;;2.33;1.10;;;1.90;99.90;;;;;;5065148;28;20323;-70
2023/03/28 06:54:51;;;;;;;2.10;0.90;;;1.90;99.90;;;;;;5064767;28;20241;-71
2023/03/28 06:57:19;;;;;;;1.53;0.90;;;1.90;99.90;;;;;;5062151;28;20208;-71
2023/03/28 06:59:46;;;;;;;2.13;1.10;;;1.90;99.90;;;;;;5047305;28;20208;-71
2023/03/28 07:02:13;;;;;;;1.47;1.00;;;2.00;99.90;;;;;;5057152;28;20239;-71
2023/03/28 07:04:40;;;;;;;3.17;1.20;;;2.00;99.90;;;;;;5048504;28;20244;-70
2023/03/28 07:07:08;;;;;;;1.37;0.80;;;2.10;99.90;;;;;;5048903;28;20651;-71
2023/03/28 07:09:35;;;;;;;1.10;0.77;;;2.10;99.90;;;;;;5048716;28;20974;-71
2023/03/28 07:12:02;;;;;;;0.90;0.90;;;2.20;99.90;;;;;;5057124;28;20302;-71
2023/03/28 07:14:30;;;;;;;0.83;0.83;;;2.20;99.90;;;;;;5068325;28;20288;-71
2023/03/28 07:16:57;;;;;;;1.83;0.87;;;2.20;99.90;;;;;;5068472;28;20239;-71
2023/03/28 07:19:24;;;;;;;2.57;1.47;;;2.30;99.90;;;;;;5068586;28;20207;-71
2023/03/28 07:21:52;;;;;;;0.67;0.60;;;2.30;99.90;;;;;;5053284;28;20200;-71
2023/03/28 07:24:19;;;;;;;0.90;0.67;;;2.40;99.90;;;;;;5048359;28;20204;-71
2023/03/28 07:26:46;;;;;;;1.93;0.93;;;2.40;99.90;;;;;;5048029;28;20912;-71
2023/03/28 07:29:13;;;;;;;2.30;1.27;;;2.50;99.90;;;;;;5048487;28;20291;-71
2023/03/28 07:31:41;;;;;;;1.10;0.90;;;2.50;99.90;;;;;;5048491;28;20232;-72
2023/03/28 07:34:08;;;;;;;5.17;1.00;;;2.60;99.90;;;;;;5048479;28;20239;-71
2023/03/28 07:36:37;;;;;;;0.60;0.60;;;2.70;99.90;;;;;;5048750;28;20302;-71
2023/03/28 07:39:04;;;;;;;2.20;0.67;;;2.70;99.90;;;;;;5048326;28;20670;-71
2023/03/28 07:41:32;;;;;;;1.17;0.83;;;2.60;99.90;;;;;;5052567;28;20211;-71
2023/03/28 07:43:59;;;;;;;1.77;0.90;;;2.70;99.90;;;;;;5067946;28;20211;-71
2023/03/28 07:46:26;;;;;;;3.60;0.87;;;2.70;99.90;;;;;;5068383;28;20208;-71
2023/03/28 07:48:55;;;;;;;3.97;1.40;;;2.80;99.90;;;;;;5067789;28;20732;-71
2023/03/28 07:51:22;;;;;;;3.43;0.93;;;2.80;99.90;;;;;;5049497;28;20208;-71
2023/03/28 07:53:49;;;;;;;1.50;0.70;;;2.90;99.90;;;;;;5053338;28;20212;-71
2023/03/28 07:56:16;;;;;;;2.90;0.67;;;2.90;99.90;;;;;;5047767;28;20669;-71
2023/03/28 07:58:43;;;;;;;2.97;0.67;;;3.00;99.90;;;;;;5056229;28;20265;-71
2023/03/28 08:01:12;;;;;;;0.97;0.80;;;3.10;99.90;;;;;;5061977;28;20294;-71
2023/03/28 08:03:39;;;;;;;1.57;0.60;;;3.20;99.90;;;;;;5047836;28;20204;-71
2023/03/28 08:06:10;;;;;;;1.17;0.83;;;3.30;99.90;;;;;;5047932;28;20236;-71
2023/03/28 08:08:37;;;;;;;4.33;1.30;;;3.40;99.90;;;;;;5047075;28;20668;-71
2023/03/28 08:11:04;;;;;;;1.93;1.27;;;3.40;99.90;;;;;;5047409;28;20231;-71
2023/03/28 08:13:31;;;;;;;0.87;0.63;;;3.40;99.90;;;;;;5067911;28;20565;-71
2023/03/28 08:15:58;;;;;;;0.93;0.57;;;3.40;99.90;;;;;;5067425;28;20678;-71
2023/03/28 08:18:25;;;;;;;2.53;0.83;;;3.50;99.90;;;;;;5067860;28;20256;-71
2023/03/28 08:20:59;;;;;;;1.73;0.53;;;3.50;99.90;;;;;;5067037;28;20644;-71
2023/03/28 08:23:28;;;;;;;0.63;0.63;;;3.70;99.90;;;;;;5067344;28;20198;-71
2023/03/28 08:26:03;;;;;;;2.90;0.50;;;3.70;99.90;;;;;;5067364;28;20314;-71
2023/03/28 08:28:31;;;;;;;1.83;0.50;;;3.70;99.90;;;;;;5067689;28;20215;-71
2023/03/28 08:30:59;;;;;;;1.27;0.60;;;3.90;99.90;;;;;;5067428;28;20298;-71
2023/03/28 08:33:27;;;;;;;2.47;0.70;;;3.90;99.90;;;;;;5067373;28;20712;-71
2023/03/28 08:35:54;;;;;;;2.90;0.83;;;3.90;99.90;;;;;;5067082;28;20217;-71
2023/03/28 08:38:22;;;;;;;2.10;0.70;;;4.00;99.90;;;;;;5067111;28;20215;-72
2023/03/28 08:41:00;;;;;;;1.80;0.57;;;4.10;99.90;;;;;;5066902;28;20678;-71
2023/03/28 08:44:00;;;;;;;2.03;0.87;;;4.20;99.90;;;;;;5046818;28;20718;-71
2023/03/28 08:46:29;;;;;;;0.60;0.20;;;4.20;99.90;;;;;;5056093;28;20258;-71
2023/03/28 08:48:57;;;;;;;1.27;0.50;;;4.10;99.90;;;;;;5066929;28;20326;-71
2023/03/28 08:51:27;;;;;;;0.40;0.40;;;4.20;99.90;;;;;;5051132;28;20212;-71
2023/03/28 08:54:04;;;;;;;1.60;0.60;;;4.30;99.90;;;;;;5046875;28;20214;-70
2023/03/28 08:56:35;;;;;;;0.50;0.50;;;4.30;99.90;;;;;;5046654;28;20663;-70
2023/03/28 08:59:07;;;;;;;0.73;0.50;;;4.30;99.90;;;;;;5065980;28;20703;-71
2023/03/28 09:01:35;;;;;;;0.70;0.43;;;4.40;99.90;;;;;;5066634;28;20223;-71
2023/03/28 09:04:03;;;;;;;1.50;0.40;;;4.40;99.90;;;;;;5066524;28;20208;-71
2023/03/28 09:06:37;;;;;;;0.53;0.53;;;4.50;99.90;;;;;;5066742;28;20303;-71
2023/03/28 09:09:33;;;;;;;1.07;0.37;;;4.50;99.90;;;;;;5066081;28;20251;-70
2023/03/28 09:12:23;;;;;;;1.13;0.60;;;4.50;99.90;;;;;;5066498;28;20242;-70
2023/03/28 09:15:14;;;;;;;0.70;0.47;;;4.70;99.90;;;;;;5066179;28;20197;-70
2023/03/28 09:17:54;;;;;;;0.33;0.33;;;4.80;99.90;;;;;;5066372;28;20199;-71
2023/03/28 09:20:28;;;;;;;0.20;0.20;;;4.90;99.90;;;;;;5065862;28;21737;-71
2023/03/28 09:23:18;;;;;;;0.40;0.40;;;4.80;99.90;;;;;;5066215;28;20207;-71
2023/03/28 09:25:51;;;;;;;1.43;0.50;;;4.90;99.90;;;;;;5066615;28;20227;-70
2023/03/28 09:28:34;;;;;;;0.87;0.17;;;4.90;99.90;;;;;;5066518;28;20223;-70
2023/03/28 09:31:01;;;;;;;0.40;0.40;;;4.90;99.90;;;;;;5066328;28;20196;-70
2023/03/28 09:33:34;;;;;;;2.97;0.47;;;4.90;99.90;;;;;;5066230;28;20212;-70
2023/03/28 09:36:02;;;;;;;0.60;0.50;;;4.80;99.90;;;;;;5065770;28;20200;-70
2023/03/28 09:38:33;;;;;;;0.63;0.33;;;4.80;99.90;;;;;;5066107;28;20203;-71
2023/03/28 09:41:05;;;;;;;0.47;0.40;;;4.80;99.90;;;;;;5064817;28;20297;-70
2023/03/28 09:43:39;;;;;;;0.53;0.53;;;4.70;99.90;;;;;;5061541;28;20229;-71
2023/03/28 09:46:08;;;;;;;0.80;0.80;;;4.80;99.90;;;;;;5056644;28;20212;-71
2023/03/28 09:48:37;;;;;;;0.40;0.20;;;4.80;99.90;;;;;;5045408;28;20594;-71
2023/03/28 09:51:06;;;;;;;0.30;0.30;;;4.80;99.90;;;;;;5052881;28;20303;-70
2023/03/28 09:53:35;;;;;;;0.40;0.33;;;4.60;99.90;;;;;;5065295;28;20216;-70
2023/03/28 09:56:06;;;;;;;1.80;0.40;;;4.70;99.90;;;;;;5065655;28;20261;-70
2023/03/28 09:58:49;;;;;;;0.30;0.30;;;4.70;99.90;;;;;;5065747;28;20568;-71
2023/03/28 10:01:42;;;;;;;1.53;0.53;;;4.70;99.90;;;;;;5065667;28;20210;-70
2023/03/28 10:04:11;;;;;;;0.20;0.20;;;4.70;99.90;;;;;;5050841;28;20243;-71
2023/03/28 10:06:39;;;;;;;0.43;0.37;;;4.70;99.90;;;;;;5065592;28;20215;-71
2023/03/28 10:09:20;;;;;;;1.93;0.80;;;4.80;99.90;;;;;;5065495;28;20262;-70
2023/03/28 10:11:49;;;;;;;0.40;0.40;;;4.80;99.90;;;;;;5065819;28;20261;-70
2023/03/28 10:14:32;;;;;;;1.80;0.50;;;4.90;99.90;;;;;;5065354;28;20217;-70
2023/03/28 10:17:02;;;;;;;0.90;0.50;;;5.10;99.90;;;;;;5065035;28;20324;-71
2023/03/28 10:19:33;;;;;;;5.63;0.50;;;5.00;99.90;;;;;;5064981;28;20264;-71
2023/03/28 10:22:06;;;;;;;0.77;0.17;;;5.10;99.90;;;;;;5048733;28;20720;-71
2023/03/28 10:24:34;;;;;;;1.33;0.53;;;5.30;99.90;;;;;;5045403;28;20297;-71
2023/03/28 10:27:08;;;;;;;0.20;0.20;;;5.50;99.90;;;;;;5045103;28;20287;-71
2023/03/28 10:29:37;;;;;;;0.77;0.30;;;5.60;99.00;;;;;;5045148;28;20658;-71
2023/03/28 10:32:05;;;;;;;0.30;0.30;;;5.60;98.60;;;;;;5045192;28;20570;-71
2023/03/28 10:34:33;;;;;;;0.67;0.40;;;5.60;98.60;;;;;;5044450;28;20579;-71
2023/03/28 10:37:00;;;;;;;0.53;0.40;;;5.60;99.80;;;;;;5045149;28;20208;-71
2023/03/28 10:39:29;;;;;;;0.20;0.20;;;5.80;99.20;;;;;;5045190;28;20218;-71
2023/03/28 10:41:57;;;;;;;0.80;0.37;;;6.00;99.90;;;;;;5050613;28;20204;-71
2023/03/28 10:44:27;;;;;;;0.30;0.20;;;6.10;99.50;;;;;;5064902;28;20955;-72
2023/03/28 10:46:59;;;;;;;0.80;0.30;;;6.20;98.00;;;;;;5065150;28;20291;-71
2023/03/28 10:49:28;;;;;;;0.63;0.30;;;6.40;99.10;;;;;;5065028;28;20587;-71
2023/03/28 10:51:55;;;;;;;1.33;0.30;;;6.30;98.10;;;;;;5064848;28;20207;-71
2023/03/28 10:54:41;;;;;;;0.73;0.40;;;6.10;97.60;;;;;;5064623;28;20970;-70
2023/03/28 10:57:16;;;;;;;0.30;0.20;;;6.00;97.50;;;;;;5064604;28;20199;-70
2023/03/28 10:59:49;;;;;;;0.57;0.57;;;6.00;97.70;;;;;;5064459;28;20768;-70
2023/03/28 11:02:40;;;;;;;0.30;0.30;;;6.20;98.60;;;;;;5064868;28;20544;-70
2023/03/28 11:05:24;;;;;;;0.53;0.37;;;6.40;97.60;;;;;;5064420;28;20909;-70
2023/03/28 11:07:59;;;;;;;0.80;0.47;;;6.30;97.00;;;;;;5064518;28;20235;-70
2023/03/28 11:10:34;;;;;;;0.40;0.10;;;6.40;97.80;;;;;;5065024;28;20199;-70
2023/03/28 11:13:15;;;;;;;0.50;0.43;;;6.30;96.80;;;;;;5047892;28;20210;-70
2023/03/28 11:15:51;;;;;;;0.40;0.33;;;6.50;98.00;;;;;;5044652;28;20279;-71
2023/03/28 11:18:29;;;;;;;1.70;1.07;;;6.70;97.40;;;;;;5044537;28;20290;-70
2023/03/28 11:21:06;;;;;;;1.83;0.60;;;6.90;96.20;;;;;;5044193;28;20203;-70
2023/03/28 11:23:44;;;;;;;0.43;0.27;;;7.10;97.00;;;;;;5044495;28;20257;-72
2023/03/28 11:26:14;;;;;;;0.30;0.27;;;7.10;95.70;;;;;;5044812;28;20203;-71
2023/03/28 11:28:58;;;;;;;1.30;0.40;;;7.10;96.40;;;;;;5044297;28;20264;-71
2023/03/28 11:31:31;;;;;;;1.10;0.80;;;7.00;96.20;;;;;;5044323;28;20202;-70
2023/03/28 11:34:04;;;;;;;3.60;3.30;;;7.10;97.10;;;;;;5044083;28;20288;-71
2023/03/28 11:36:36;;;;;;;0.53;0.53;;;7.20;96.00;;;;;;5044568;28;20211;-70
2023/03/28 11:39:12;;;;;;;2.07;0.50;;;7.30;95.70;;;;;;5056825;28;20243;-70
2023/03/28 11:41:42;;;;;;;1.03;0.30;;;7.40;96.00;;;;;;5058443;28;20296;-71
2023/03/28 11:44:16;;;;;;;0.40;0.40;;;7.70;96.50;;;;;;5044422;28;20212;-71
2023/03/28 11:46:48;;;;;;;0.27;0.27;;;7.90;96.00;;;;;;5049797;28;20213;-71
2023/03/28 11:49:23;;;;;;;0.20;0.10;;;8.20;96.40;;;;;;5047887;28;20369;-71
2023/03/28 11:51:58;;;;;;;0.40;0.30;;;8.30;95.30;;;;;;5047912;28;20283;-71
2023/03/28 11:54:32;;;;;;;0.37;0.30;;;8.30;95.90;;;;;;5047646;28;20196;-71
2023/03/28 11:57:04;;;;;;;1.17;0.37;;;8.40;96.50;;;;;;5047504;28;20290;-71
2023/03/28 11:59:38;;;;;;;0.93;0.20;;;8.30;95.10;;;;;;5047936;28;20284;-71
2023/03/28 12:02:15;;;;;;;0.20;0.20;;;8.20;94.70;;;;;;5047788;28;20219;-71
2023/03/28 12:04:49;;;;;;;2.20;0.40;;;8.30;95.50;;;;;;5047479;28;20643;-71
2023/03/28 12:07:19;;;;;;;0.50;0.50;;;8.50;95.50;;;;;;5048102;28;20286;-71
2023/03/28 12:10:05;;;;;;;0.20;0.20;;;8.60;95.00;;;;;;5047383;28;20247;-71
2023/03/28 12:12:37;;;;;;;0.10;0.10;;;8.70;94.40;;;;;;5047976;28;20243;-71
2023/03/28 12:15:11;;;;;;;0.27;0.27;;;8.60;93.90;;;;;;5047471;28;20275;-71
2023/03/28 12:17:42;;;;;;;0.40;0.40;;;8.50;93.80;;;;;;5047606;28;20196;-71
2023/03/28 12:20:17;;;;;;;0.50;0.30;;;8.40;94.20;;;;;;5048286;28;20299;-72
2023/03/28 12:22:51;;;;;;;0.63;0.30;;;8.40;95.30;;;;;;5067212;28;20234;-72
2023/03/28 12:25:27;;;;;;;0.70;0.40;;;8.30;94.30;;;;;;5067606;28;20231;-71
2023/03/28 12:28:04;;;;;;;0.57;0.40;;;8.10;93.40;;;;;;5067427;28;20306;-71
2023/03/28 12:30:36;;;;;;;0.57;0.20;;;8.10;94.10;;;;;;5065796;28;20640;-71
2023/03/28 12:33:14;;;;;;;0.30;0.30;;;8.30;93.80;;;;;;5047081;28;20674;-71
2023/03/28 12:35:50;;;;;;;1.00;0.50;;;8.60;94.40;;;;;;5052663;28;20251;-71
2023/03/28 12:38:27;;;;;;;0.57;0.53;;;8.80;93.50;;;;;;5047171;28;20600;-71
2023/03/28 12:40:58;;;;;;;0.20;0.20;;;8.90;93.30;;;;;;5046886;28;20203;-71
2023/03/28 12:43:31;;;;;;;0.87;0.43;;;8.50;93.00;;;;;;5050260;28;20331;-71
2023/03/28 12:46:02;;;;;;;2.07;0.30;;;8.80;94.30;;;;;;5047075;28;20204;-71
2023/03/28 12:48:36;;;;;;;1.17;0.30;;;8.90;93.60;;;;;;5063857;28;20299;-71
2023/03/28 12:51:12;;;;;;;0.30;0.30;;;9.00;92.70;;;;;;5066704;28;20662;-71
2023/03/28 12:54:01;;;;;;;0.23;0.20;;;9.00;92.90;;;;;;5067054;28;20191;-71
2023/03/28 12:56:28;;;;;;;0.50;0.30;;;8.90;92.90;;;;;;5066174;28;20195;-71
2023/03/28 12:58:56;;;;;;;0.30;0.30;;;9.00;93.30;;;;;;5066072;28;20749;-71
2023/03/28 13:01:45;;;;;;;1.30;0.60;;;9.30;93.90;;;;;;5066726;28;20301;-71
2023/03/28 13:04:22;;;;;;;0.40;0.40;;;9.60;93.20;;;;;;5066403;28;20200;-71
2023/03/28 13:06:59;;;;;;;1.00;0.50;;;9.90;93.00;;;;;;5066407;28;20306;-71
2023/03/28 13:09:48;;;;;;;0.57;0.53;;;10.20;92.10;;;;;;5066019;28;20747;-71
2023/03/28 13:12:53;;;;;;;0.97;0.60;;;10.40;92.20;;;;;;5056022;28;20294;-71
2023/03/28 13:15:33;;;;;;;0.70;0.23;;;10.60;91.80;;;;;;5044976;28;20725;-71
2023/03/28 13:18:30;;;;;;;0.47;0.40;;;10.80;93.00;;;;;;5046354;28;20243;-71
2023/03/28 13:20:58;;;;;;;0.40;0.40;;;11.00;92.00;;;;;;5053457;28;20200;-71